sensor_id;sensor_type;location;lat;lon;timestamp;P1;durP1;ratioP1;P2;durP2;ratioP2
24631;SDS011;59977;48.782;9.190;2022-07-06T00:00:34;10.10;;;1.95;;
24631;SDS011;59977;48.782;9.190;2022-07-06T00:03:00;7.53;;;1.70;;
24631;SDS011;59977;48.782;9.190;2022-07-06T00:05:25;3.65;;;1.90;;
24631;SDS011;59977;48.782;9.190;2022-07-06T00:07:51;9.85;;;2.00;;
24631;SDS011;59977;48.782;9.190;2022-07-06T00:10:17;9.50;;;2.10;;
24631;SDS011;59977;48.782;9.190;2022-07-06T00:12:42;8.48;;;1.85;;
24631;SDS011;59977;48.782;9.190;2022-07-06T00:15:08;5.20;;;1.60;;
24631;SDS011;59977;48.782;9.190;2022-07-06T00:17:34;4.30;;;1.70;;
24631;SDS011;59977;48.782;9.190;2022-07-06T00:20:00;5.65;;;1.67;;
24631;SDS011;59977;48.782;9.190;2022-07-06T00:22:25;3.40;;;1.75;;
24631;SDS011;59977;48.782;9.190;2022-07-06T00:24:51;6.25;;;1.80;;
24631;SDS011;59977;48.782;9.190;2022-07-06T00:27:16;9.63;;;1.75;;
24631;SDS011;59977;48.782;9.190;2022-07-06T00:29:42;5.10;;;1.80;;
24631;SDS011;59977;48.782;9.190;2022-07-06T00:32:09;6.60;;;1.90;;
24631;SDS011;59977;48.782;9.190;2022-07-06T00:34:36;3.83;;;1.85;;
24631;SDS011;59977;48.782;9.190;2022-07-06T00:37:04;6.07;;;1.90;;
24631;SDS011;59977;48.782;9.190;2022-07-06T00:39:30;4.30;;;1.77;;
24631;SDS011;59977;48.782;9.190;2022-07-06T00:41:56;3.40;;;1.90;;
24631;SDS011;59977;48.782;9.190;2022-07-06T00:44:22;7.30;;;2.08;;
24631;SDS011;59977;48.782;9.190;2022-07-06T00:46:47;3.90;;;1.75;;
24631;SDS011;59977;48.782;9.190;2022-07-06T00:49:13;14.00;;;1.60;;
24631;SDS011;59977;48.782;9.190;2022-07-06T00:51:57;6.50;;;2.20;;
24631;SDS011;59977;48.782;9.190;2022-07-06T00:54:24;6.93;;;1.90;;
24631;SDS011;59977;48.782;9.190;2022-07-06T00:56:51;2.42;;;1.90;;
24631;SDS011;59977;48.782;9.190;2022-07-06T00:59:16;6.40;;;1.80;;
24631;SDS011;59977;48.782;9.190;2022-07-06T01:01:42;5.97;;;1.83;;
24631;SDS011;59977;48.782;9.190;2022-07-06T01:04:08;3.47;;;1.90;;
24631;SDS011;59977;48.782;9.190;2022-07-06T01:06:33;7.10;;;1.73;;
24631;SDS011;59977;48.782;9.190;2022-07-06T01:08:59;6.13;;;2.00;;
24631;SDS011;59977;48.782;9.190;2022-07-06T01:11:25;7.35;;;1.75;;
24631;SDS011;59977;48.782;9.190;2022-07-06T01:13:51;5.30;;;1.83;;
24631;SDS011;59977;48.782;9.190;2022-07-06T01:16:17;5.60;;;1.92;;
24631;SDS011;59977;48.782;9.190;2022-07-06T01:18:43;3.30;;;1.73;;
24631;SDS011;59977;48.782;9.190;2022-07-06T01:21:09;5.15;;;1.40;;
24631;SDS011;59977;48.782;9.190;2022-07-06T01:23:39;3.03;;;1.80;;
24631;SDS011;59977;48.782;9.190;2022-07-06T01:26:08;5.15;;;1.67;;
24631;SDS011;59977;48.782;9.190;2022-07-06T01:28:35;5.10;;;1.73;;
24631;SDS011;59977;48.782;9.190;2022-07-06T01:31:01;10.20;;;1.88;;
24631;SDS011;59977;48.782;9.190;2022-07-06T01:33:26;7.45;;;1.70;;
24631;SDS011;59977;48.782;9.190;2022-07-06T01:35:52;7.07;;;2.00;;
24631;SDS011;59977;48.782;9.190;2022-07-06T01:38:17;2.70;;;1.40;;
24631;SDS011;59977;48.782;9.190;2022-07-06T01:40:43;4.53;;;1.55;;
24631;SDS011;59977;48.782;9.190;2022-07-06T01:43:09;7.03;;;1.67;;
24631;SDS011;59977;48.782;9.190;2022-07-06T01:45:34;5.75;;;1.90;;
24631;SDS011;59977;48.782;9.190;2022-07-06T01:48:00;8.55;;;1.58;;
24631;SDS011;59977;48.782;9.190;2022-07-06T01:50:29;8.93;;;2.20;;
24631;SDS011;59977;48.782;9.190;2022-07-06T01:52:55;7.32;;;2.33;;
24631;SDS011;59977;48.782;9.190;2022-07-06T01:55:20;6.07;;;1.80;;
24631;SDS011;59977;48.782;9.190;2022-07-06T01:57:46;2.88;;;1.63;;
24631;SDS011;59977;48.782;9.190;2022-07-06T02:00:12;4.18;;;2.10;;
24631;SDS011;59977;48.782;9.190;2022-07-06T02:02:38;5.55;;;1.70;;
24631;SDS011;59977;48.782;9.190;2022-07-06T02:05:03;4.72;;;1.70;;
24631;SDS011;59977;48.782;9.190;2022-07-06T02:07:29;3.92;;;1.60;;
24631;SDS011;59977;48.782;9.190;2022-07-06T02:09:55;3.65;;;1.73;;
24631;SDS011;59977;48.782;9.190;2022-07-06T02:12:20;6.78;;;1.67;;
24631;SDS011;59977;48.782;9.190;2022-07-06T02:14:46;7.72;;;2.03;;
24631;SDS011;59977;48.782;9.190;2022-07-06T02:17:12;10.98;;;1.80;;
24631;SDS011;59977;48.782;9.190;2022-07-06T02:19:38;6.10;;;2.03;;
24631;SDS011;59977;48.782;9.190;2022-07-06T02:22:03;7.30;;;1.85;;
24631;SDS011;59977;48.782;9.190;2022-07-06T02:24:29;4.53;;;1.50;;
24631;SDS011;59977;48.782;9.190;2022-07-06T02:26:54;7.22;;;1.83;;
24631;SDS011;59977;48.782;9.190;2022-07-06T02:29:20;4.43;;;1.98;;
24631;SDS011;59977;48.782;9.190;2022-07-06T02:31:46;7.25;;;1.92;;
24631;SDS011;59977;48.782;9.190;2022-07-06T02:34:12;5.40;;;1.80;;
24631;SDS011;59977;48.782;9.190;2022-07-06T02:36:37;4.50;;;1.83;;
24631;SDS011;59977;48.782;9.190;2022-07-06T02:39:03;6.05;;;2.38;;
24631;SDS011;59977;48.782;9.190;2022-07-06T02:41:28;4.00;;;2.03;;
24631;SDS011;59977;48.782;9.190;2022-07-06T02:43:54;6.55;;;2.17;;
24631;SDS011;59977;48.782;9.190;2022-07-06T02:46:20;5.00;;;1.90;;
24631;SDS011;59977;48.782;9.190;2022-07-06T02:48:45;6.20;;;1.90;;
24631;SDS011;59977;48.782;9.190;2022-07-06T02:51:11;6.82;;;2.20;;
24631;SDS011;59977;48.782;9.190;2022-07-06T02:53:36;5.40;;;1.95;;
24631;SDS011;59977;48.782;9.190;2022-07-06T02:56:02;3.85;;;1.60;;
24631;SDS011;59977;48.782;9.190;2022-07-06T02:58:28;6.70;;;2.13;;
24631;SDS011;59977;48.782;9.190;2022-07-06T03:00:53;5.22;;;1.75;;
24631;SDS011;59977;48.782;9.190;2022-07-06T03:03:19;7.45;;;1.77;;
24631;SDS011;59977;48.782;9.190;2022-07-06T03:05:45;3.95;;;2.03;;
24631;SDS011;59977;48.782;9.190;2022-07-06T03:08:11;8.25;;;1.90;;
24631;SDS011;59977;48.782;9.190;2022-07-06T03:10:37;8.85;;;2.10;;
24631;SDS011;59977;48.782;9.190;2022-07-06T03:13:03;8.05;;;1.90;;
24631;SDS011;59977;48.782;9.190;2022-07-06T03:15:28;4.18;;;1.83;;
24631;SDS011;59977;48.782;9.190;2022-07-06T03:17:54;3.40;;;1.58;;
24631;SDS011;59977;48.782;9.190;2022-07-06T03:20:19;4.30;;;1.98;;
24631;SDS011;59977;48.782;9.190;2022-07-06T03:22:45;11.05;;;1.98;;
24631;SDS011;59977;48.782;9.190;2022-07-06T03:25:10;9.32;;;2.20;;
24631;SDS011;59977;48.782;9.190;2022-07-06T03:27:36;8.00;;;1.98;;
24631;SDS011;59977;48.782;9.190;2022-07-06T03:30:02;3.28;;;1.85;;
24631;SDS011;59977;48.782;9.190;2022-07-06T03:32:28;5.00;;;1.88;;
24631;SDS011;59977;48.782;9.190;2022-07-06T03:34:54;4.65;;;1.80;;
24631;SDS011;59977;48.782;9.190;2022-07-06T03:37:19;8.32;;;2.22;;
24631;SDS011;59977;48.782;9.190;2022-07-06T03:39:45;8.45;;;2.13;;
24631;SDS011;59977;48.782;9.190;2022-07-06T03:42:11;4.85;;;2.05;;
24631;SDS011;59977;48.782;9.190;2022-07-06T03:44:36;7.20;;;2.22;;
24631;SDS011;59977;48.782;9.190;2022-07-06T03:47:02;12.15;;;2.53;;
24631;SDS011;59977;48.782;9.190;2022-07-06T03:49:28;10.95;;;2.00;;
24631;SDS011;59977;48.782;9.190;2022-07-06T03:51:53;7.82;;;1.90;;
24631;SDS011;59977;48.782;9.190;2022-07-06T03:54:19;7.43;;;2.30;;
24631;SDS011;59977;48.782;9.190;2022-07-06T03:56:45;6.32;;;2.05;;
24631;SDS011;59977;48.782;9.190;2022-07-06T03:59:11;12.65;;;2.60;;
24631;SDS011;59977;48.782;9.190;2022-07-06T04:01:36;8.07;;;2.13;;
24631;SDS011;59977;48.782;9.190;2022-07-06T04:04:02;5.72;;;2.08;;
24631;SDS011;59977;48.782;9.190;2022-07-06T04:06:28;6.68;;;2.17;;
24631;SDS011;59977;48.782;9.190;2022-07-06T04:08:53;7.13;;;2.03;;
24631;SDS011;59977;48.782;9.190;2022-07-06T04:11:19;7.43;;;2.10;;
24631;SDS011;59977;48.782;9.190;2022-07-06T04:13:45;12.13;;;2.33;;
24631;SDS011;59977;48.782;9.190;2022-07-06T04:16:10;7.55;;;2.22;;
24631;SDS011;59977;48.782;9.190;2022-07-06T04:18:36;8.77;;;2.30;;
24631;SDS011;59977;48.782;9.190;2022-07-06T04:21:01;10.10;;;2.35;;
24631;SDS011;59977;48.782;9.190;2022-07-06T04:23:27;7.13;;;2.03;;
24631;SDS011;59977;48.782;9.190;2022-07-06T04:25:53;5.72;;;2.20;;
24631;SDS011;59977;48.782;9.190;2022-07-06T04:28:19;13.93;;;2.40;;
24631;SDS011;59977;48.782;9.190;2022-07-06T04:30:44;5.15;;;2.10;;
24631;SDS011;59977;48.782;9.190;2022-07-06T04:33:10;4.68;;;2.20;;
24631;SDS011;59977;48.782;9.190;2022-07-06T04:35:36;8.52;;;2.38;;
24631;SDS011;59977;48.782;9.190;2022-07-06T04:38:01;8.85;;;2.40;;
24631;SDS011;59977;48.782;9.190;2022-07-06T04:40:27;7.00;;;2.50;;
24631;SDS011;59977;48.782;9.190;2022-07-06T04:42:52;7.30;;;2.15;;
24631;SDS011;59977;48.782;9.190;2022-07-06T04:45:18;5.93;;;2.38;;
24631;SDS011;59977;48.782;9.190;2022-07-06T04:47:43;9.52;;;2.80;;
24631;SDS011;59977;48.782;9.190;2022-07-06T04:50:09;8.65;;;2.85;;
24631;SDS011;59977;48.782;9.190;2022-07-06T04:52:36;10.10;;;2.47;;
24631;SDS011;59977;48.782;9.190;2022-07-06T04:55:02;7.35;;;2.70;;
24631;SDS011;59977;48.782;9.190;2022-07-06T04:57:30;7.80;;;2.55;;
24631;SDS011;59977;48.782;9.190;2022-07-06T04:59:55;10.07;;;2.80;;
24631;SDS011;59977;48.782;9.190;2022-07-06T05:02:21;11.52;;;2.75;;
24631;SDS011;59977;48.782;9.190;2022-07-06T05:04:47;8.10;;;2.63;;
24631;SDS011;59977;48.782;9.190;2022-07-06T05:07:12;7.95;;;2.70;;
24631;SDS011;59977;48.782;9.190;2022-07-06T05:09:38;11.43;;;2.83;;
24631;SDS011;59977;48.782;9.190;2022-07-06T05:12:04;11.68;;;2.90;;
24631;SDS011;59977;48.782;9.190;2022-07-06T05:14:29;8.18;;;2.65;;
24631;SDS011;59977;48.782;9.190;2022-07-06T05:16:55;9.27;;;2.92;;
24631;SDS011;59977;48.782;9.190;2022-07-06T05:19:21;10.57;;;3.08;;
24631;SDS011;59977;48.782;9.190;2022-07-06T05:21:46;9.52;;;2.40;;
24631;SDS011;59977;48.782;9.190;2022-07-06T05:24:12;10.40;;;2.78;;
24631;SDS011;59977;48.782;9.190;2022-07-06T05:26:37;12.68;;;3.00;;
24631;SDS011;59977;48.782;9.190;2022-07-06T05:29:03;11.77;;;2.88;;
24631;SDS011;59977;48.782;9.190;2022-07-06T05:31:29;11.05;;;2.97;;
24631;SDS011;59977;48.782;9.190;2022-07-06T05:33:54;14.52;;;3.08;;
24631;SDS011;59977;48.782;9.190;2022-07-06T05:36:20;7.53;;;2.50;;
24631;SDS011;59977;48.782;9.190;2022-07-06T05:38:45;11.82;;;2.55;;
24631;SDS011;59977;48.782;9.190;2022-07-06T05:41:11;8.93;;;2.63;;
24631;SDS011;59977;48.782;9.190;2022-07-06T05:43:37;10.70;;;2.83;;
24631;SDS011;59977;48.782;9.190;2022-07-06T05:46:03;6.45;;;2.58;;
24631;SDS011;59977;48.782;9.190;2022-07-06T05:48:28;9.45;;;2.88;;
24631;SDS011;59977;48.782;9.190;2022-07-06T05:51:13;6.07;;;2.60;;
24631;SDS011;59977;48.782;9.190;2022-07-06T05:53:38;6.05;;;2.50;;
24631;SDS011;59977;48.782;9.190;2022-07-06T05:56:04;8.88;;;2.75;;
24631;SDS011;59977;48.782;9.190;2022-07-06T05:58:30;8.60;;;2.88;;
24631;SDS011;59977;48.782;9.190;2022-07-06T06:00:55;13.68;;;3.33;;
24631;SDS011;59977;48.782;9.190;2022-07-06T06:03:21;10.65;;;2.67;;
24631;SDS011;59977;48.782;9.190;2022-07-06T06:05:47;7.38;;;2.67;;
24631;SDS011;59977;48.782;9.190;2022-07-06T06:08:13;8.10;;;2.40;;
24631;SDS011;59977;48.782;9.190;2022-07-06T06:10:38;15.15;;;3.30;;
24631;SDS011;59977;48.782;9.190;2022-07-06T06:13:04;11.40;;;2.33;;
24631;SDS011;59977;48.782;9.190;2022-07-06T06:15:30;7.47;;;2.70;;
24631;SDS011;59977;48.782;9.190;2022-07-06T06:17:55;5.38;;;2.20;;
24631;SDS011;59977;48.782;9.190;2022-07-06T06:20:21;9.10;;;2.38;;
24631;SDS011;59977;48.782;9.190;2022-07-06T06:22:56;11.35;;;2.42;;
24631;SDS011;59977;48.782;9.190;2022-07-06T06:25:40;9.50;;;2.25;;
24631;SDS011;59977;48.782;9.190;2022-07-06T06:28:07;8.65;;;2.35;;
24631;SDS011;59977;48.782;9.190;2022-07-06T06:30:34;11.57;;;2.40;;
24631;SDS011;59977;48.782;9.190;2022-07-06T06:33:11;10.32;;;2.60;;
24631;SDS011;59977;48.782;9.190;2022-07-06T06:35:41;9.63;;;2.75;;
24631;SDS011;59977;48.782;9.190;2022-07-06T06:38:18;5.35;;;2.40;;
24631;SDS011;59977;48.782;9.190;2022-07-06T06:40:45;9.55;;;2.80;;
24631;SDS011;59977;48.782;9.190;2022-07-06T06:43:11;8.88;;;2.50;;
24631;SDS011;59977;48.782;9.190;2022-07-06T06:45:36;8.63;;;2.30;;
24631;SDS011;59977;48.782;9.190;2022-07-06T06:48:03;9.95;;;2.50;;
24631;SDS011;59977;48.782;9.190;2022-07-06T06:50:29;8.80;;;2.70;;
24631;SDS011;59977;48.782;9.190;2022-07-06T06:52:54;12.23;;;2.17;;
24631;SDS011;59977;48.782;9.190;2022-07-06T06:55:20;12.60;;;2.38;;
24631;SDS011;59977;48.782;9.190;2022-07-06T06:57:46;5.93;;;2.30;;
24631;SDS011;59977;48.782;9.190;2022-07-06T07:00:12;11.88;;;3.05;;
24631;SDS011;59977;48.782;9.190;2022-07-06T07:02:38;11.60;;;2.88;;
24631;SDS011;59977;48.782;9.190;2022-07-06T07:05:04;9.68;;;2.50;;
24631;SDS011;59977;48.782;9.190;2022-07-06T07:07:31;10.55;;;2.75;;
24631;SDS011;59977;48.782;9.190;2022-07-06T07:09:58;11.82;;;2.58;;
24631;SDS011;59977;48.782;9.190;2022-07-06T07:12:23;4.63;;;2.72;;
24631;SDS011;59977;48.782;9.190;2022-07-06T07:14:49;8.52;;;2.40;;
24631;SDS011;59977;48.782;9.190;2022-07-06T07:17:15;12.15;;;2.38;;
24631;SDS011;59977;48.782;9.190;2022-07-06T07:19:41;12.27;;;2.20;;
24631;SDS011;59977;48.782;9.190;2022-07-06T07:22:07;8.98;;;2.20;;
24631;SDS011;59977;48.782;9.190;2022-07-06T07:24:33;11.82;;;2.50;;
24631;SDS011;59977;48.782;9.190;2022-07-06T07:26:59;8.82;;;2.58;;
24631;SDS011;59977;48.782;9.190;2022-07-06T07:29:25;4.20;;;2.33;;
24631;SDS011;59977;48.782;9.190;2022-07-06T07:31:50;6.30;;;2.10;;
24631;SDS011;59977;48.782;9.190;2022-07-06T07:34:16;9.93;;;2.53;;
24631;SDS011;59977;48.782;9.190;2022-07-06T07:36:42;3.70;;;2.08;;
24631;SDS011;59977;48.782;9.190;2022-07-06T07:39:08;9.73;;;2.20;;
24631;SDS011;59977;48.782;9.190;2022-07-06T07:41:34;10.10;;;2.55;;
24631;SDS011;59977;48.782;9.190;2022-07-06T07:46:35;7.05;;;2.20;;
24631;SDS011;59977;48.782;9.190;2022-07-06T07:49:01;8.02;;;2.17;;
24631;SDS011;59977;48.782;9.190;2022-07-06T07:51:28;11.95;;;2.75;;
24631;SDS011;59977;48.782;9.190;2022-07-06T07:53:54;10.30;;;2.13;;
24631;SDS011;59977;48.782;9.190;2022-07-06T07:56:19;8.25;;;1.95;;
24631;SDS011;59977;48.782;9.190;2022-07-06T07:58:45;17.20;;;2.38;;
24631;SDS011;59977;48.782;9.190;2022-07-06T08:01:11;8.40;;;2.30;;
24631;SDS011;59977;48.782;9.190;2022-07-06T08:03:36;6.45;;;2.47;;
24631;SDS011;59977;48.782;9.190;2022-07-06T08:06:02;7.88;;;2.30;;
24631;SDS011;59977;48.782;9.190;2022-07-06T08:08:28;6.93;;;2.33;;
24631;SDS011;59977;48.782;9.190;2022-07-06T08:10:53;9.52;;;2.65;;
24631;SDS011;59977;48.782;9.190;2022-07-06T08:13:19;13.68;;;2.65;;
24631;SDS011;59977;48.782;9.190;2022-07-06T08:15:45;12.82;;;2.70;;
24631;SDS011;59977;48.782;9.190;2022-07-06T08:18:10;12.38;;;2.60;;
24631;SDS011;59977;48.782;9.190;2022-07-06T08:20:36;9.55;;;2.42;;
24631;SDS011;59977;48.782;9.190;2022-07-06T08:23:02;8.40;;;2.45;;
24631;SDS011;59977;48.782;9.190;2022-07-06T08:25:28;13.38;;;2.78;;
24631;SDS011;59977;48.782;9.190;2022-07-06T08:27:55;16.65;;;2.80;;
24631;SDS011;59977;48.782;9.190;2022-07-06T08:30:20;8.65;;;2.55;;
24631;SDS011;59977;48.782;9.190;2022-07-06T08:32:46;9.88;;;2.42;;
24631;SDS011;59977;48.782;9.190;2022-07-06T08:35:12;11.50;;;2.78;;
24631;SDS011;59977;48.782;9.190;2022-07-06T08:37:38;14.90;;;2.85;;
24631;SDS011;59977;48.782;9.190;2022-07-06T08:40:04;8.93;;;2.35;;
24631;SDS011;59977;48.782;9.190;2022-07-06T08:42:31;9.20;;;2.30;;
24631;SDS011;59977;48.782;9.190;2022-07-06T08:44:59;4.32;;;2.03;;
24631;SDS011;59977;48.782;9.190;2022-07-06T08:47:26;10.23;;;2.30;;
24631;SDS011;59977;48.782;9.190;2022-07-06T08:49:53;6.93;;;2.40;;
24631;SDS011;59977;48.782;9.190;2022-07-06T08:52:19;14.68;;;2.67;;
24631;SDS011;59977;48.782;9.190;2022-07-06T08:54:47;6.22;;;2.53;;
24631;SDS011;59977;48.782;9.190;2022-07-06T08:57:31;9.05;;;2.42;;
24631;SDS011;59977;48.782;9.190;2022-07-06T08:59:56;8.45;;;2.42;;
24631;SDS011;59977;48.782;9.190;2022-07-06T09:02:25;5.70;;;2.30;;
24631;SDS011;59977;48.782;9.190;2022-07-06T09:04:53;17.27;;;2.75;;
24631;SDS011;59977;48.782;9.190;2022-07-06T09:07:24;12.85;;;2.65;;
24631;SDS011;59977;48.782;9.190;2022-07-06T09:09:53;7.30;;;2.47;;
24631;SDS011;59977;48.782;9.190;2022-07-06T09:12:20;18.05;;;2.40;;
24631;SDS011;59977;48.782;9.190;2022-07-06T09:14:46;22.38;;;2.80;;
24631;SDS011;59977;48.782;9.190;2022-07-06T09:17:12;23.77;;;4.05;;
24631;SDS011;59977;48.782;9.190;2022-07-06T09:19:38;14.40;;;3.08;;
24631;SDS011;59977;48.782;9.190;2022-07-06T09:22:07;10.30;;;2.50;;
24631;SDS011;59977;48.782;9.190;2022-07-06T09:24:32;16.77;;;2.50;;
24631;SDS011;59977;48.782;9.190;2022-07-06T09:27:06;9.40;;;2.50;;
24631;SDS011;59977;48.782;9.190;2022-07-06T09:29:42;8.15;;;2.30;;
24631;SDS011;59977;48.782;9.190;2022-07-06T09:32:10;10.23;;;2.38;;
24631;SDS011;59977;48.782;9.190;2022-07-06T09:34:40;6.32;;;2.33;;
24631;SDS011;59977;48.782;9.190;2022-07-06T09:37:09;10.48;;;2.35;;
24631;SDS011;59977;48.782;9.190;2022-07-06T09:39:36;14.68;;;3.00;;
24631;SDS011;59977;48.782;9.190;2022-07-06T09:42:05;11.98;;;2.92;;
24631;SDS011;59977;48.782;9.190;2022-07-06T09:44:35;13.57;;;2.67;;
24631;SDS011;59977;48.782;9.190;2022-07-06T09:47:03;9.27;;;2.63;;
24631;SDS011;59977;48.782;9.190;2022-07-06T09:49:31;10.10;;;2.20;;
24631;SDS011;59977;48.782;9.190;2022-07-06T09:51:57;20.13;;;2.55;;
24631;SDS011;59977;48.782;9.190;2022-07-06T09:54:24;20.05;;;2.70;;
24631;SDS011;59977;48.782;9.190;2022-07-06T09:56:50;13.60;;;2.38;;
24631;SDS011;59977;48.782;9.190;2022-07-06T09:59:18;14.32;;;2.53;;
24631;SDS011;59977;48.782;9.190;2022-07-06T10:01:46;11.18;;;2.28;;
24631;SDS011;59977;48.782;9.190;2022-07-06T10:04:16;8.00;;;2.15;;
24631;SDS011;59977;48.782;9.190;2022-07-06T10:06:45;10.73;;;2.28;;
24631;SDS011;59977;48.782;9.190;2022-07-06T10:09:11;14.20;;;2.50;;
24631;SDS011;59977;48.782;9.190;2022-07-06T10:11:39;9.80;;;2.80;;
24631;SDS011;59977;48.782;9.190;2022-07-06T10:14:07;9.55;;;2.60;;
24631;SDS011;59977;48.782;9.190;2022-07-06T10:16:35;9.95;;;2.85;;
24631;SDS011;59977;48.782;9.190;2022-07-06T10:19:04;13.05;;;2.70;;
24631;SDS011;59977;48.782;9.190;2022-07-06T10:21:31;9.18;;;2.50;;
24631;SDS011;59977;48.782;9.190;2022-07-06T10:23:58;7.20;;;2.30;;
24631;SDS011;59977;48.782;9.190;2022-07-06T10:26:25;13.57;;;2.55;;
24631;SDS011;59977;48.782;9.190;2022-07-06T10:28:53;16.83;;;2.58;;
24631;SDS011;59977;48.782;9.190;2022-07-06T10:31:19;8.80;;;2.30;;
24631;SDS011;59977;48.782;9.190;2022-07-06T10:33:45;9.85;;;2.60;;
24631;SDS011;59977;48.782;9.190;2022-07-06T10:36:12;10.82;;;2.65;;
24631;SDS011;59977;48.782;9.190;2022-07-06T10:38:38;8.98;;;2.60;;
24631;SDS011;59977;48.782;9.190;2022-07-06T10:41:05;7.63;;;2.28;;
24631;SDS011;59977;48.782;9.190;2022-07-06T10:43:41;7.07;;;2.50;;
24631;SDS011;59977;48.782;9.190;2022-07-06T10:46:08;9.90;;;2.50;;
24631;SDS011;59977;48.782;9.190;2022-07-06T10:48:40;6.53;;;2.50;;
24631;SDS011;59977;48.782;9.190;2022-07-06T10:51:07;9.50;;;2.40;;
24631;SDS011;59977;48.782;9.190;2022-07-06T10:53:34;11.23;;;2.58;;
24631;SDS011;59977;48.782;9.190;2022-07-06T10:56:08;9.18;;;2.75;;
24631;SDS011;59977;48.782;9.190;2022-07-06T11:01:01;11.55;;;2.50;;
24631;SDS011;59977;48.782;9.190;2022-07-06T11:05:58;18.90;;;2.80;;
24631;SDS011;59977;48.782;9.190;2022-07-06T11:14:01;11.55;;;2.47;;
24631;SDS011;59977;48.782;9.190;2022-07-06T11:19:19;8.00;;;2.70;;
24631;SDS011;59977;48.782;9.190;2022-07-06T11:21:52;11.60;;;2.80;;
24631;SDS011;59977;48.782;9.190;2022-07-06T11:24:26;7.45;;;2.30;;
24631;SDS011;59977;48.782;9.190;2022-07-06T11:26:53;7.18;;;2.22;;
24631;SDS011;59977;48.782;9.190;2022-07-06T11:29:20;9.77;;;2.47;;
24631;SDS011;59977;48.782;9.190;2022-07-06T11:31:48;6.43;;;2.30;;
24631;SDS011;59977;48.782;9.190;2022-07-06T11:34:22;7.05;;;2.55;;
24631;SDS011;59977;48.782;9.190;2022-07-06T11:36:49;13.43;;;2.55;;
24631;SDS011;59977;48.782;9.190;2022-07-06T11:39:21;13.70;;;2.70;;
24631;SDS011;59977;48.782;9.190;2022-07-06T11:41:46;14.07;;;2.60;;
24631;SDS011;59977;48.782;9.190;2022-07-06T11:44:12;7.80;;;3.00;;
24631;SDS011;59977;48.782;9.190;2022-07-06T11:46:38;12.40;;;2.67;;
24631;SDS011;59977;48.782;9.190;2022-07-06T11:49:04;16.98;;;2.53;;
24631;SDS011;59977;48.782;9.190;2022-07-06T11:51:32;8.73;;;2.40;;
24631;SDS011;59977;48.782;9.190;2022-07-06T11:54:10;6.82;;;2.72;;
24631;SDS011;59977;48.782;9.190;2022-07-06T11:59:23;8.52;;;2.85;;
24631;SDS011;59977;48.782;9.190;2022-07-06T12:01:59;17.02;;;2.50;;
24631;SDS011;59977;48.782;9.190;2022-07-06T12:04:25;9.55;;;2.83;;
24631;SDS011;59977;48.782;9.190;2022-07-06T12:06:51;9.15;;;2.42;;
24631;SDS011;59977;48.782;9.190;2022-07-06T12:09:17;9.43;;;2.80;;
24631;SDS011;59977;48.782;9.190;2022-07-06T12:11:45;5.97;;;2.80;;
24631;SDS011;59977;48.782;9.190;2022-07-06T12:14:19;10.07;;;2.60;;
24631;SDS011;59977;48.782;9.190;2022-07-06T12:16:49;14.10;;;2.60;;
24631;SDS011;59977;48.782;9.190;2022-07-06T12:19:16;11.68;;;2.67;;
24631;SDS011;59977;48.782;9.190;2022-07-06T12:21:45;8.32;;;2.88;;
24631;SDS011;59977;48.782;9.190;2022-07-06T12:24:16;17.47;;;3.10;;
24631;SDS011;59977;48.782;9.190;2022-07-06T12:26:46;32.40;;;3.40;;
24631;SDS011;59977;48.782;9.190;2022-07-06T12:29:12;9.23;;;2.72;;
24631;SDS011;59977;48.782;9.190;2022-07-06T12:31:40;6.90;;;2.38;;
24631;SDS011;59977;48.782;9.190;2022-07-06T12:34:12;8.35;;;2.70;;
24631;SDS011;59977;48.782;9.190;2022-07-06T12:36:51;11.60;;;2.30;;
24631;SDS011;59977;48.782;9.190;2022-07-06T12:39:20;12.15;;;2.53;;
24631;SDS011;59977;48.782;9.190;2022-07-06T12:41:55;9.57;;;2.67;;
24631;SDS011;59977;48.782;9.190;2022-07-06T12:44:31;11.70;;;2.50;;
24631;SDS011;59977;48.782;9.190;2022-07-06T12:47:06;14.88;;;2.30;;
24631;SDS011;59977;48.782;9.190;2022-07-06T12:49:34;10.02;;;2.50;;
24631;SDS011;59977;48.782;9.190;2022-07-06T12:54:33;10.57;;;2.42;;
24631;SDS011;59977;48.782;9.190;2022-07-06T12:59:31;9.43;;;2.85;;
24631;SDS011;59977;48.782;9.190;2022-07-06T13:01:58;7.93;;;2.65;;
24631;SDS011;59977;48.782;9.190;2022-07-06T13:04:28;12.82;;;2.53;;
24631;SDS011;59977;48.782;9.190;2022-07-06T13:09:22;11.38;;;2.50;;
24631;SDS011;59977;48.782;9.190;2022-07-06T13:11:48;9.38;;;2.38;;
24631;SDS011;59977;48.782;9.190;2022-07-06T13:14:15;11.95;;;2.38;;
24631;SDS011;59977;48.782;9.190;2022-07-06T13:16:42;7.05;;;2.30;;
24631;SDS011;59977;48.782;9.190;2022-07-06T13:19:11;3.92;;;1.95;;
24631;SDS011;59977;48.782;9.190;2022-07-06T13:21:37;8.80;;;2.10;;
24631;SDS011;59977;48.782;9.190;2022-07-06T13:24:04;8.35;;;2.15;;
24631;SDS011;59977;48.782;9.190;2022-07-06T13:26:29;14.52;;;2.25;;
24631;SDS011;59977;48.782;9.190;2022-07-06T13:28:58;8.25;;;2.17;;
24631;SDS011;59977;48.782;9.190;2022-07-06T13:31:30;6.78;;;1.95;;
24631;SDS011;59977;48.782;9.190;2022-07-06T13:33:56;8.63;;;1.90;;
24631;SDS011;59977;48.782;9.190;2022-07-06T13:36:22;16.80;;;2.30;;
24631;SDS011;59977;48.782;9.190;2022-07-06T13:38:48;11.20;;;1.90;;
24631;SDS011;59977;48.782;9.190;2022-07-06T13:41:13;9.88;;;2.13;;
24631;SDS011;59977;48.782;9.190;2022-07-06T13:43:39;10.23;;;2.50;;
24631;SDS011;59977;48.782;9.190;2022-07-06T13:46:06;15.07;;;2.80;;
24631;SDS011;59977;48.782;9.190;2022-07-06T13:48:32;7.40;;;2.30;;
24631;SDS011;59977;48.782;9.190;2022-07-06T13:50:59;10.95;;;2.40;;
24631;SDS011;59977;48.782;9.190;2022-07-06T13:53:25;9.15;;;2.00;;
24631;SDS011;59977;48.782;9.190;2022-07-06T13:55:51;8.85;;;2.10;;
24631;SDS011;59977;48.782;9.190;2022-07-06T13:58:17;11.77;;;2.03;;
24631;SDS011;59977;48.782;9.190;2022-07-06T14:00:43;7.65;;;1.90;;
24631;SDS011;59977;48.782;9.190;2022-07-06T14:03:09;7.72;;;1.80;;
24631;SDS011;59977;48.782;9.190;2022-07-06T14:05:35;4.00;;;1.70;;
24631;SDS011;59977;48.782;9.190;2022-07-06T14:08:01;8.52;;;2.05;;
24631;SDS011;59977;48.782;9.190;2022-07-06T14:10:27;13.98;;;2.50;;
24631;SDS011;59977;48.782;9.190;2022-07-06T14:12:52;5.57;;;1.80;;
24631;SDS011;59977;48.782;9.190;2022-07-06T14:15:18;6.55;;;1.75;;
24631;SDS011;59977;48.782;9.190;2022-07-06T14:17:44;7.43;;;1.85;;
24631;SDS011;59977;48.782;9.190;2022-07-06T14:20:10;5.97;;;1.60;;
24631;SDS011;59977;48.782;9.190;2022-07-06T14:22:36;10.30;;;2.35;;
24631;SDS011;59977;48.782;9.190;2022-07-06T14:25:02;6.55;;;1.70;;
24631;SDS011;59977;48.782;9.190;2022-07-06T14:27:28;5.40;;;1.90;;
24631;SDS011;59977;48.782;9.190;2022-07-06T14:29:53;7.22;;;1.83;;
24631;SDS011;59977;48.782;9.190;2022-07-06T14:32:19;10.50;;;2.33;;
24631;SDS011;59977;48.782;9.190;2022-07-06T14:34:45;7.85;;;1.90;;
24631;SDS011;59977;48.782;9.190;2022-07-06T14:37:10;5.22;;;1.90;;
24631;SDS011;59977;48.782;9.190;2022-07-06T14:39:36;7.50;;;1.83;;
24631;SDS011;59977;48.782;9.190;2022-07-06T14:42:02;4.95;;;1.60;;
24631;SDS011;59977;48.782;9.190;2022-07-06T14:44:27;8.10;;;1.80;;
24631;SDS011;59977;48.782;9.190;2022-07-06T14:46:53;6.05;;;1.75;;
24631;SDS011;59977;48.782;9.190;2022-07-06T14:49:19;11.07;;;1.95;;
24631;SDS011;59977;48.782;9.190;2022-07-06T14:51:44;5.35;;;1.50;;
24631;SDS011;59977;48.782;9.190;2022-07-06T14:54:10;5.00;;;1.70;;
24631;SDS011;59977;48.782;9.190;2022-07-06T14:56:35;7.93;;;2.05;;
24631;SDS011;59977;48.782;9.190;2022-07-06T14:59:01;4.07;;;1.58;;
24631;SDS011;59977;48.782;9.190;2022-07-06T15:01:27;5.93;;;1.63;;
24631;SDS011;59977;48.782;9.190;2022-07-06T15:03:53;6.18;;;1.52;;
24631;SDS011;59977;48.782;9.190;2022-07-06T15:06:19;8.02;;;1.90;;